• Join FlightAware (Why Join?)
  • Login
  • US Flag 
10:24AM EDT


 

Airport Tracker/Info


-or-


 

Live Flight TrackerFlight Track Log ✈ N770NC ✈ 12-Jun-2013 ✈ KORD - KATL

Flight Track Log - Related Links

Times and Time Zones

All times are in EDT time to prevent confusion due to time zone crossing. See the N770NC flight status page for this flight to view local times or setup timezone preferences in your user account.

Time Position Orientation Groundspeed Altitude Reporting Facility
EDT Latitude Longitude Course Direction KTS MPH feet Rate Location/Type
09:39AM 41.9381 -87.9100 166° South 167 192 1,800  Level Chicago Center
09:39AM 41.9167 -87.9000 161° South 188 216 2,200 1,680 Climbing Chicago TRACON
09:41AM 41.8106 -87.8806 172° South 259 298 5,300 2,040 Climbing Chicago Center
09:42AM 41.5590 -87.7087 168° South  Level Estimated
09:42AM 41.7261 -87.8228 153° Southeast 284 327 8,100  Level Chicago Center
09:43AM 41.4533 -87.6597 180° South  Level Estimated
09:43AM 41.6461 -87.7983 167° South 297 342 10,000  Level Chicago Center
09:44AM 41.3476 -87.6108 166° South  Level Estimated
09:44AM 41.5644 -87.7706 166° South 301 346 12,200  Level Chicago Center
09:45AM 41.4750 -87.7575 174° South 316 364 13,100 1,260 Climbing Chicago Center
09:46AM 41.3756 -87.7319 169° South 362 417 14,900 1,620 Climbing Chicago Center
09:47AM 41.2761 -87.6833 160° South 376 433 16,500 1,560 Climbing Chicago Center
09:48AM 41.1694 -87.6469 166° South 389 448 18,200 1,680 Climbing Chicago Center
09:49AM 41.0411 -87.6053 166° South 396 456 20,000 1,380 Climbing Chicago Center
09:50AM 40.9306 -87.5733 168° South 402 463 21,100 1,140 Climbing Chicago Center
09:51AM 40.8181 -87.5400 167° South 411 473 22,400 1,020 Climbing Chicago Center
09:52AM 40.7044 -87.5064 167° South 418 481 23,300 840 Climbing Chicago Center
09:53AM 40.5886 -87.4878 173° South 419 482 24,200 840 Climbing Chicago Center
09:54AM 40.4683 -87.4658 172° South 432 497 25,100 960 Climbing Chicago Center
09:55AM 40.3197 -87.4344 171° South 447 514 26,300 960 Climbing Chicago Center
09:57AM 40.1942 -87.4094 171° South 455 524 27,100 720 Climbing Chicago Center
09:57AM 40.0997 -87.3908 171° South 463 533 27,700 960 Climbing Indianapolis Center
09:58AM 39.9692 -87.3667 172° South 470 541 28,900 1,140 Climbing Indianapolis Center
09:59AM 39.8386 -87.3425 172° South 471 542 30,100 480 Climbing Indianapolis Center
10:00AM 39.7083 -87.3167 171° South 472 543 30,000 -60 Descending Indianapolis Center
10:01AM 39.5519 -87.2664 166° South 478 550 30,000  Level Indianapolis Center
10:02AM 39.4231 -87.2278 167° South 475 547 30,000  Level Indianapolis Center
10:03AM 39.2942 -87.1869 166° South 475 547 30,000  Level Indianapolis Center
10:05AM 39.1636 -87.1478 167° South 479 551 30,100 480 Climbing Indianapolis Center
10:06AM 39.0347 -87.1069 166° South 475 547 31,000 420 Climbing Indianapolis Center
10:07AM 38.9031 -87.0656 166° South 481 554 31,000  Level Indianapolis Center
10:08AM 38.7711 -87.0261 167° South 484 557 31,000  Level Indianapolis Center
10:09AM 38.6392 -86.9850 166° South 484 557 31,000  Level Indianapolis Center
10:10AM 38.4792 -86.9356 166° South 485 558 31,000  Level Indianapolis Center
10:11AM 38.3447 -86.8864 164° South 489 563 31,000  Level Indianapolis Center
10:12AM 38.2092 -86.8378 164° South 491 565 31,000  Level Indianapolis Center
10:13AM 38.0781 -86.7944 165° South 481 554 31,000  Level Indianapolis Center
10:14AM 37.9461 -86.7486 165° South 487 560 31,000  Level Indianapolis Center
10:15AM 37.8136 -86.7033 165° South 490 564 31,000  Level Indianapolis Center
10:16AM 37.6817 -86.6597 165° South 487 560 31,000  Level Indianapolis Center
10:17AM 37.5500 -86.6167 165° South 486 559 31,000  Level Indianapolis Center
10:18AM 37.4125 -86.5736 166° South 487 560 31,000  Level Indianapolis Center
10:19AM 37.2778 -86.5386 168° South 489 563 31,000  Level Indianapolis Center
10:20AM 37.1206 -86.4994 169° South 487 560 31,000  Level Indianapolis Center
10:21AM 36.9861 -86.4661 169° South 488 562 31,000  Level Indianapolis Center
10:22AM 36.8508 -86.4356 170° South 488 562 31,000  Level Indianapolis Center
10:23AM 36.7156 -86.4053 170° South 487 560 31,000  Level Indianapolis Center
10:24AM 36.5592 -86.3683 169° South 486 559 31,000  Level Memphis Center
10:25AM 36.4397 -86.3433 170° South 486 559 31,000  Level Memphis Center
10:26AM 36.3053 -86.3139 170° South 486 559 31,000  Level Memphis Center
10:27AM 36.1708 -86.2869 171° South 486 559 31,000 -360 Level Memphis Center
10:28AM 36.0364 -86.2553 169° South 486 559 30,300 -840 Descending Memphis Center
10:29AM 35.8917 -86.2242 170° South 491 565 29,400 -540 Descending Memphis Center
10:31AM 35.6914 -86.1739 168° South 487 560 29,000 -180 Descending Atlanta Center
10:32AM 35.5667 -86.1425 168° South 482 555 29,000  Level Atlanta Center
10:33AM 35.4425 -86.0883 160° South 476 548 29,100  Climbing Atlanta Center
10:34AM 35.3247 -86.0142 153° Southeast 471 542 29,100  Level Atlanta Center
10:35AM 35.2092 -85.9350 151° Southeast 478 550 29,100  Level Atlanta Center
10:36AM 35.0958 -85.8514 149° Southeast 478 550 29,100  Level Atlanta Center
10:37AM 34.9822 -85.7653 148° Southeast 483 556 29,100  Level Atlanta Center
10:38AM 34.8664 -85.6792 149° Southeast 483 556 29,100 -60 Level Atlanta Center
10:39AM 34.7528 -85.5886 147° Southeast 483 556 29,000 -1,560 Descending Atlanta Center
10:40AM 34.6475 -85.4981 145° Southeast 483 556 26,000 -3,540 Descending Atlanta Center
10:41AM 34.5381 -85.4131 147° Southeast 472 543 22,000 -3,600 Descending Atlanta Center
10:42AM 34.4325 -85.3283 146° Southeast 472 543 18,900 -3,000 Descending Atlanta Center
10:43AM 34.3269 -85.2461 147° Southeast 442 509 16,100 -2,220 Descending Atlanta Center
10:44AM 34.2439 -85.1847 149° Southeast 413 475 14,500 -1,140 Descending Atlanta Center
10:45AM 34.1550 -85.1031 143° Southeast 400 460 13,900 -300 Descending Atlanta Center
10:46AM 34.0786 -85.0044 133° Southeast 395 455 14,000 -180 Climbing Atlanta Center
10:47AM 34.0061 -84.9133 134° Southeast 390 449 13,600 -960 Descending Atlanta Center
10:48AM 33.9317 -84.8325 138° Southeast 367 422 12,100 -840 Descending Atlanta Center
10:49AM 33.8667 -84.7500 133° Southeast 276 318 12,000 -60 Descending Atlanta TRACON
10:50AM 33.8167 -84.6833 132° Southeast 260 299 12,000  Level Atlanta TRACON
10:51AM 33.7667 -84.6167 132° Southeast 262 302 12,000 -180 Level Atlanta TRACON
10:52AM 33.7333 -84.5500 121° Southeast 263 303 11,700 -900 Descending Atlanta TRACON
10:53AM 33.7167 -84.4667 103° East 249 287 10,300 -1,680 Descending Atlanta TRACON
10:54AM 33.7167 -84.3833 90° East 251 289 8,400 -1,860 Descending Atlanta TRACON
10:55AM 33.7167 -84.3000 90° East 228 262 6,600 -2,040 Descending Atlanta TRACON
10:56AM 33.7000 -84.2333 107° East 239 275 4,400 -2,220 Descending Atlanta TRACON